Time;durP1;ratioP1;P1;durP2;ratioP2;P2;SDS_P1;SDS_P2;PMS_P1;PMS_P2;Temp;Humidity;BMP_temperature;BMP_pressure;BME280_temperature;BME280_humidity;BME280_pressure;Samples;Min_cycle;Max_cycle;Signal;HPM_P1;HPM_P2
2022/01/27 00:05:30;;;;;;;;;53.25;37.50;;;;;6.99;58.30;102893.94;5018548;28;45417;-78
2022/01/27 00:08:15;;;;;;;;;59.50;45.00;;;;;7.09;58.95;102904.13;5006783;28;45430;-75
2022/01/27 00:13:16;;;;;;;;;53.25;43.00;;;;;6.62;59.01;102815.41;5014428;28;45329;-76
2022/01/27 00:15:44;;;;;;;;;47.33;38.33;;;;;6.90;58.71;102862.63;5001629;28;45415;-74
2022/01/27 00:18:18;;;;;;;;;55.00;43.33;;;;;7.08;59.10;102892.69;5001054;28;45275;-74
2022/01/27 00:20:48;;;;;;;;;52.50;42.00;;;;;7.05;58.94;102876.09;5017894;28;45452;-72
2022/01/27 00:23:15;;;;;;;;;51.50;42.25;;;;;7.06;58.78;102883.09;5021496;28;45436;-74
2022/01/27 00:25:41;;;;;;;;;56.00;45.25;;;;;7.00;58.79;102855.97;5034309;28;45484;-75
2022/01/27 00:28:06;;;;;;;;;53.50;42.75;;;;;7.09;58.74;102872.38;5001278;28;45476;-75
2022/01/27 00:30:33;;;;;;;;;54.75;41.25;;;;;7.06;58.98;102877.81;4999392;28;48117;-73
2022/01/27 00:32:59;;;;;;;;;52.00;44.25;;;;;7.05;58.87;102862.88;5033208;28;45497;-73
2022/01/27 00:35:24;;;;;;;;;57.75;44.50;;;;;7.14;59.28;102883.59;5009473;28;45268;-75
2022/01/27 00:37:50;;;;;;;;;56.25;43.25;;;;;6.92;58.94;102844.91;5000631;28;45220;-72
2022/01/27 00:40:15;;;;;;;;;40.67;35.00;;;;;7.14;58.84;102881.81;4999723;28;47708;-75
2022/01/27 00:42:42;;;;;;;;;52.75;41.00;;;;;7.08;58.57;102865.38;5018046;28;45251;-74
2022/01/27 00:45:08;;;;;;;;;52.75;40.75;;;;;6.99;59.13;102856.91;5018463;28;45378;-74
2022/01/27 00:47:34;;;;;;;;;52.00;41.50;;;;;7.08;59.65;102860.06;5018744;28;45325;-74
2022/01/27 00:50:06;;;;;;;;;53.00;43.75;;;;;6.96;58.91;102843.81;4999831;28;48508;-74
2022/01/27 00:55:07;;;;;;;;;54.75;41.75;;;;;6.51;59.75;102804.44;5018904;28;45262;-74
2022/01/27 01:00:03;;;;;;;;;54.50;43.25;;;;;6.71;59.86;102830.00;5018514;28;45932;-72
2022/01/27 01:05:56;;;;;;;;;53.75;42.25;;;;;6.81;59.81;102841.88;5016312;28;45619;-76
2022/01/27 01:08:25;;;;;;;;;61.50;44.75;;;;;6.59;59.81;102801.44;5012068;28;45464;-73
2022/01/27 01:16:26;;;;;;;;;58.75;45.00;;;;;6.74;60.16;102819.28;5017636;28;45192;-73
2022/01/27 01:30:06;;;;;;;;;64.50;48.25;;;;;6.52;60.77;102797.38;5017120;28;45542;-74
2022/01/27 01:35:05;;;;;;;;;59.25;47.75;;;;;6.61;61.69;102818.13;5017230;28;45454;-74
2022/01/27 01:37:30;;;;;;;;;57.50;46.25;;;;;6.66;61.87;102819.63;5015744;28;45350;-73
2022/01/27 01:39:56;;;;;;;;;79.75;60.50;;;;;6.64;61.46;102817.97;5017395;28;45373;-73
2022/01/27 01:42:21;;;;;;;;;74.00;57.25;;;;;6.65;61.78;102830.28;4999452;28;47485;-73
2022/01/27 01:44:48;;;;;;;;;71.75;52.25;;;;;6.50;61.35;102799.22;5017081;28;45301;-75
2022/01/27 01:47:14;;;;;;;;;63.00;50.50;;;;;6.62;61.94;102819.84;4999665;28;45300;-74
2022/01/27 01:49:39;;;;;;;;;64.75;49.75;;;;;6.51;62.23;102815.00;4999420;28;45491;-75
2022/01/27 01:52:08;;;;;;;;;63.00;44.25;;;;;6.36;61.97;102786.59;5016495;28;46238;-71
2022/01/27 01:54:33;;;;;;;;;65.25;50.25;;;;;6.36;62.47;102786.59;4998969;28;45347;-74
2022/01/27 01:56:59;;;;;;;;;63.25;49.00;;;;;6.35;62.57;102790.19;4998970;28;45239;-79
2022/01/27 01:59:25;;;;;;;;;72.00;51.25;;;;;6.39;62.84;102811.09;5017485;28;45432;-74
2022/01/27 02:01:51;;;;;;;;;67.50;52.00;;;;;6.11;63.16;102770.97;5016751;28;45448;-75
2022/01/27 02:04:17;;;;;;;;;61.00;49.00;;;;;6.19;63.73;102789.13;5017938;28;45211;-74
2022/01/27 02:19:58;;;;;;;;;70.00;56.00;;;;;6.10;64.17;102791.25;5010247;28;45476;-73
2022/01/27 02:22:24;;;;;;;;;68.25;52.00;;;;;6.08;64.79;102792.22;5016151;28;45726;-75
2022/01/27 02:24:51;;;;;;;;;66.75;52.25;;;;;6.04;64.07;102780.09;5009308;28;45442;-74
2022/01/27 02:27:18;;;;;;;;;64.75;50.25;;;;;6.10;63.72;102785.09;5032108;28;45478;-74
2022/01/27 02:29:44;;;;;;;;;67.50;51.00;;;;;6.17;63.90;102785.69;5014923;28;45492;-72
2022/01/27 02:32:11;;;;;;;;;66.50;50.75;;;;;5.30;64.32;102638.91;5016183;28;46341;-73
2022/01/27 02:34:37;;;;;;;;;69.50;52.00;;;;;6.21;63.78;102784.66;5015370;28;45601;-75
2022/01/27 02:37:03;;;;;;;;;65.75;50.25;;;;;6.05;63.74;102750.13;5017185;28;45231;-72
2022/01/27 02:39:28;;;;;;;;;70.25;52.25;;;;;6.26;63.61;102786.16;5016516;28;45227;-74
2022/01/27 02:42:05;;;;;;;;;71.50;49.50;;;;;6.21;63.62;102769.66;5013037;28;47152;-73
2022/01/27 02:44:45;;;;;;;;;62.25;50.25;;;;;6.20;63.30;102775.84;5019486;28;45415;-74
2022/01/27 02:47:15;;;;;;;;;68.00;52.25;;;;;6.13;63.65;102757.69;5027169;28;45414;-74
2022/01/27 02:49:41;;;;;;;;;64.75;49.25;;;;;6.11;63.97;102744.56;5001908;28;45543;-72
2022/01/27 02:52:07;;;;;;;;;64.25;50.75;;;;;6.07;64.28;102745.63;5019348;28;45550;-74
2022/01/27 02:54:36;;;;;;;;;71.50;49.75;;;;;6.13;63.70;102762.97;5020055;28;45346;-72
2022/01/27 02:57:07;;;;;;;;;79.25;58.50;;;;;5.74;64.14;102709.13;5018238;28;45424;-74
2022/01/27 02:59:32;;;;;;;;;61.00;49.75;;;;;5.82;64.58;102723.81;5002220;28;45562;-72
2022/01/27 03:01:58;;;;;;;;;65.75;51.00;;;;;6.06;64.73;102767.69;5002132;28;46922;-73
2022/01/27 03:04:24;;;;;;;;;61.50;50.50;;;;;5.99;64.16;102739.78;5019389;28;45362;-73
2022/01/27 03:06:50;;;;;;;;;58.50;48.00;;;;;6.08;63.83;102765.81;5016535;28;45352;-72
2022/01/27 03:09:16;;;;;;;;;65.00;49.00;;;;;6.04;64.50;102764.25;5001396;28;45501;-74
2022/01/27 03:11:48;;;;;;;;;61.50;48.75;;;;;5.99;64.52;102758.28;5019991;28;46130;-74
2022/01/27 03:14:21;;;;;;;;;66.50;50.75;;;;;6.01;64.20;102756.47;5020075;28;45411;-73
2022/01/27 03:16:48;;;;;;;;;62.75;48.50;;;;;5.95;64.16;102739.06;5011828;28;45504;-72
2022/01/27 03:19:14;;;;;;;;;53.50;43.00;;;;;6.03;64.23;102758.09;5019255;28;45436;-73
2022/01/27 03:21:40;;;;;;;;;67.00;49.25;;;;;6.07;64.07;102753.53;5019319;28;46132;-74
2022/01/27 03:24:06;;;;;;;;;64.50;51.50;;;;;5.88;65.00;102731.47;5019193;28;45429;-74
2022/01/27 03:26:32;;;;;;;;;56.50;45.75;;;;;5.98;65.10;102760.06;5018704;28;45471;-74
2022/01/27 03:28:58;;;;;;;;;64.75;48.25;;;;;5.97;64.00;102736.38;5011143;28;45641;-73
2022/01/27 03:31:24;;;;;;;;;66.25;47.00;;;;;5.98;64.51;102730.16;5017863;28;47374;-73
2022/01/27 03:33:49;;;;;;;;;66.00;49.75;;;;;6.14;64.48;102747.06;5019368;28;45490;-72
2022/01/27 03:36:16;;;;;;;;;59.75;47.50;;;;;5.95;63.88;102707.38;5034438;28;45454;-73
2022/01/27 03:38:41;;;;;;;;;56.75;44.25;;;;;5.68;64.34;102674.25;5019101;28;45373;-72
2022/01/27 03:41:07;;;;;;;;;65.00;45.50;;;;;6.06;64.68;102752.69;5018675;28;46543;-73
2022/01/27 03:43:34;;;;;;;;;65.75;48.25;;;;;5.86;64.02;102723.59;5000891;28;45991;-74
2022/01/27 03:46:00;;;;;;;;;66.25;49.25;;;;;5.85;64.55;102723.69;5007699;28;45503;-73
2022/01/27 03:48:26;;;;;;;;;61.00;48.50;;;;;5.98;64.65;102748.63;5018721;28;45245;-72
2022/01/27 03:50:51;;;;;;;;;59.50;46.75;;;;;5.88;64.89;102736.75;5019521;28;46639;-72
2022/01/27 03:53:17;;;;;;;;;64.50;49.75;;;;;5.96;64.25;102750.50;5001464;28;45428;-73
2022/01/27 03:55:43;;;;;;;;;31.00;20.75;;;;;6.02;64.36;102755.53;5018025;28;45230;-74
2022/01/27 03:58:09;;;;;;;;;59.50;47.00;;;;;5.69;65.11;102711.13;5018725;28;45540;-74
2022/01/27 04:00:36;;;;;;;;;64.25;48.75;;;;;5.53;64.17;102686.28;5018581;28;45653;-73
2022/01/27 04:03:05;;;;;;;;;61.75;48.25;;;;;5.93;64.58;102750.63;5018644;28;45246;-74
2022/01/27 04:05:39;;;;;;;;;55.25;43.50;;;;;5.84;64.67;102735.16;5017444;28;45532;-74
2022/01/27 04:08:07;;;;;;;;;61.50;47.50;;;;;5.48;63.95;102667.16;5033198;28;45650;-73
2022/01/27 04:10:33;;;;;;;;;56.75;43.50;;;;;6.04;64.10;102751.03;5019137;28;45977;-73
2022/01/27 04:13:00;;;;;;;;;59.25;46.25;;;;;5.60;64.30;102674.53;5018134;28;45781;-73
2022/01/27 04:15:26;;;;;;;;;55.75;44.00;;;;;5.96;64.34;102734.66;5000800;28;45383;-71
2022/01/27 04:17:52;;;;;;;;;42.50;35.75;;;;;5.82;64.46;102721.16;5018293;28;45404;-72
2022/01/27 04:20:17;;;;;;;;;45.25;34.50;;;;;6.05;64.31;102752.75;5019403;28;46820;-72
2022/01/27 04:22:43;;;;;;;;;56.50;45.50;;;;;5.96;64.31;102726.72;5018755;28;45436;-73
2022/01/27 04:25:09;;;;;;;;;50.75;41.00;;;;;4.04;64.25;102416.59;5019151;28;45250;-73
2022/01/27 04:27:38;;;;;;;;;55.50;43.50;;;;;5.43;64.82;102650.69;5001514;28;45674;-73
2022/01/27 04:30:07;;;;;;;;;61.75;47.50;;;;;6.00;64.52;102747.66;5018521;28;46578;-74
2022/01/27 04:32:41;;;;;;;;;59.25;46.25;;;;;5.95;64.62;102738.22;5010310;28;45690;-73
2022/01/27 04:35:10;;;;;;;;;44.50;38.75;;;;;6.03;64.84;102738.75;5018072;28;45559;-78
2022/01/27 04:37:40;;;;;;;;;55.75;40.00;;;;;5.95;64.35;102717.09;5008208;28;45678;-72
2022/01/27 04:40:13;;;;;;;;;52.25;43.00;;;;;6.10;64.67;102742.84;5017935;28;46627;-74
2022/01/27 04:42:57;;;;;;;;;59.75;44.50;;;;;6.07;63.73;102738.56;5000324;28;45502;-74
2022/01/27 04:45:28;;;;;;;;;60.50;48.25;;;;;5.92;64.00;102706.69;4999943;28;45283;-74
2022/01/27 04:48:02;;;;;;;;;62.50;48.75;;;;;5.99;63.99;102729.22;5000765;28;45533;-74
2022/01/27 04:50:28;;;;;;;;;56.75;45.25;;;;;6.04;64.03;102732.56;5000052;28;47454;-72
2022/01/27 04:52:56;;;;;;;;;51.00;38.75;;;;;6.07;64.35;102733.28;5016849;28;45330;-73
2022/01/27 04:55:23;;;;;;;;;57.50;42.50;;;;;5.85;64.16;102702.56;5000490;28;45286;-73
2022/01/27 04:57:55;;;;;;;;;49.00;37.75;;;;;6.00;64.15;102723.88;5017769;28;45333;-74
2022/01/27 05:00:21;;;;;;;;;56.75;46.50;;;;;5.87;64.50;102712.13;5000318;28;47587;-74
2022/01/27 05:02:56;;;;;;;;;63.25;49.25;;;;;6.01;64.56;102722.13;5000165;28;45412;-74
2022/01/27 05:05:22;;;;;;;;;58.50;45.00;;;;;5.98;64.43;102727.53;5000077;28;45503;-77
2022/01/27 05:07:58;;;;;;;;;58.50;44.75;;;;;6.08;64.43;102734.13;5000496;28;45579;-74
2022/01/27 05:10:32;;;;;;;;;55.75;40.00;;;;;5.92;64.64;102711.94;5017870;28;45577;-76
2022/01/27 05:13:11;;;;;;;;;63.75;46.50;;;;;5.96;64.08;102716.16;4996761;28;45725;-75
2022/01/27 05:15:43;;;;;;;;;60.25;43.00;;;;;5.97;64.70;102720.53;5015606;28;45496;-74
2022/01/27 05:18:08;;;;;;;;;59.25;46.25;;;;;6.06;64.08;102730.72;5000047;28;45618;-73
2022/01/27 05:20:34;;;;;;;;;53.00;42.00;;;;;6.04;64.09;102728.13;5013310;28;48417;-74
2022/01/27 05:22:59;;;;;;;;;61.50;47.50;;;;;6.11;64.13;102731.34;5017691;28;45571;-74
2022/01/27 05:25:25;;;;;;;;;62.00;45.75;;;;;5.93;64.11;102703.97;5018561;28;45392;-72
2022/01/27 05:27:50;;;;;;;;;55.33;45.00;;;;;6.10;63.82;102725.22;5033213;28;45645;-72
2022/01/27 05:30:16;;;;;;;;;50.75;40.25;;;;;6.10;64.03;102727.00;5000723;28;46610;-74
2022/01/27 05:32:41;;;;;;;;;52.00;41.50;;;;;6.01;64.33;102707.16;4999368;28;45881;-73
2022/01/27 05:35:07;;;;;;;;;60.25;47.00;;;;;6.16;64.38;102726.72;5032714;28;45870;-74
2022/01/27 05:37:32;;;;;;;;;56.50;44.50;;;;;6.07;64.37;102716.56;4996338;28;45543;-74
2022/01/27 05:39:58;;;;;;;;;49.50;41.00;;;;;6.13;64.08;102715.44;5016035;28;46567;-76
2022/01/27 05:42:23;;;;;;;;;57.25;43.50;;;;;6.02;64.42;102703.59;5015617;28;45321;-74
2022/01/27 05:44:49;;;;;;;;;54.50;42.00;;;;;6.21;64.33;102727.41;5017604;28;45316;-73
2022/01/27 05:47:14;;;;;;;;;60.25;46.50;;;;;5.79;64.14;102641.16;5017460;28;45291;-73
2022/01/27 05:49:40;;;;;;;;;52.25;42.00;;;;;6.20;63.69;102707.16;5017484;28;46477;-74
2022/01/27 05:52:08;;;;;;;;;57.75;42.25;;;;;5.95;63.83;102659.88;5017035;28;45447;-75
2022/01/27 05:54:34;;;;;;;;;64.75;46.75;;;;;6.12;63.43;102690.81;4999485;28;45254;-75
2022/01/27 05:57:00;;;;;;;;;56.50;41.50;;;;;5.91;64.05;102678.56;4998838;28;45246;-73
2022/01/27 05:59:25;;;;;;;;;50.50;40.00;;;;;6.00;64.51;102684.28;5016466;28;46593;-72
2022/01/27 06:01:51;;;;;;;;;55.25;42.75;;;;;5.92;63.71;102675.00;5015364;28;45407;-73
2022/01/27 06:04:16;;;;;;;;;56.25;42.75;;;;;5.97;64.22;102694.97;5017268;28;45456;-72
2022/01/27 06:06:42;;;;;;;;;55.25;43.75;;;;;5.99;64.64;102703.69;5016939;28;45453;-74
2022/01/27 06:09:07;;;;;;;;;54.50;40.25;;;;;6.13;64.46;102718.94;5016075;28;46660;-75
2022/01/27 06:11:32;;;;;;;;;53.00;44.00;;;;;5.99;64.15;102703.69;5032388;28;46083;-72
2022/01/27 06:13:58;;;;;;;;;54.00;43.00;;;;;5.96;63.74;102697.69;4999388;28;45318;-74
2022/01/27 06:16:23;;;;;;;;;53.75;40.75;;;;;5.99;63.93;102718.66;5015864;28;45527;-74
2022/01/27 06:18:49;;;;;;;;;58.25;45.25;;;;;6.12;64.70;102726.94;5015709;28;46103;-74
2022/01/27 06:21:16;;;;;;;;;52.75;40.50;;;;;6.12;64.18;102719.88;4998279;28;45496;-73
2022/01/27 06:23:42;;;;;;;;;52.75;43.50;;;;;6.17;64.22;102731.09;5015390;28;45274;-75
2022/01/27 06:26:07;;;;;;;;;57.25;43.50;;;;;5.98;63.79;102703.75;5017602;28;45310;-75
2022/01/27 06:28:33;;;;;;;;;52.50;41.00;;;;;6.05;64.06;102721.06;5001131;28;47554;-74
2022/01/27 06:30:58;;;;;;;;;47.25;38.25;;;;;6.01;64.43;102706.28;5017919;28;45499;-75
2022/01/27 06:33:24;;;;;;;;;54.50;44.00;;;;;6.25;64.23;102744.81;5016787;28;45246;-74
2022/01/27 06:35:49;;;;;;;;;58.50;45.00;;;;;6.20;64.04;102741.50;4999012;28;45510;-74
2022/01/27 06:38:17;;;;;;;;;56.00;43.75;;;;;5.57;63.15;102631.59;4996798;28;48022;-75
2022/01/27 06:40:42;;;;;;;;;56.00;40.67;;;;;6.20;63.51;102738.88;5032086;28;45708;-74
2022/01/27 06:43:08;;;;;;;;;45.00;37.33;;;;;6.28;64.01;102741.19;4995267;28;45445;-75
2022/01/27 06:45:33;;;;;;;;;59.00;42.00;;;;;6.24;63.77;102732.53;5008262;28;45363;-74
2022/01/27 06:47:59;;;;;;;;;55.00;41.25;;;;;6.32;63.37;102742.75;5031478;28;46778;-72
2022/01/27 06:50:24;;;;;;;;;52.25;41.00;;;;;6.32;63.50;102743.63;5016186;28;45492;-76
2022/01/27 06:52:50;;;;;;;;;53.75;40.75;;;;;6.22;63.85;102725.63;5016707;28;45460;-75
2022/01/27 06:55:18;;;;;;;;;53.75;43.25;;;;;6.37;63.66;102741.63;4998802;28;45373;-73
2022/01/27 06:57:45;;;;;;;;;45.75;38.50;;;;;6.23;62.83;102722.06;5014831;28;45961;-72
2022/01/27 07:00:11;;;;;;;;;58.50;44.75;;;;;6.15;63.43;102730.28;5016242;28;45360;-73
2022/01/27 07:02:37;;;;;;;;;53.00;41.00;;;;;6.26;63.33;102732.47;5016437;28;45203;-72
2022/01/27 07:05:03;;;;;;;;;53.25;39.00;;;;;6.32;62.37;102743.63;5016578;28;45233;-74
2022/01/27 07:07:28;;;;;;;;;52.50;41.75;;;;;6.33;63.06;102750.63;5013968;28;48658;-74
2022/01/27 07:09:54;;;;;;;;;52.00;42.00;;;;;6.15;63.61;102727.66;5016110;28;45335;-74
2022/01/27 07:12:19;;;;;;;;;47.50;37.50;;;;;6.33;63.36;102761.19;4998046;28;45337;-73
2022/01/27 07:14:45;;;;;;;;;51.25;41.50;;;;;6.31;63.64;102760.41;5016352;28;45359;-73
2022/01/27 07:17:12;;;;;;;;;57.00;40.50;;;;;6.38;62.95;102763.63;5015910;28;45690;-75
2022/01/27 07:19:37;;;;;;;;;47.50;39.25;;;;;6.30;62.88;102750.75;5015904;28;45513;-78
2022/01/27 07:22:03;;;;;;;;;55.50;41.75;;;;;6.30;62.67;102729.63;5031293;28;45459;-75
2022/01/27 07:24:28;;;;;;;;;55.50;41.00;;;;;4.46;62.65;102429.81;4997457;28;45514;-77
2022/01/27 07:26:54;;;;;;;;;48.75;34.00;;;;;6.38;62.98;102748.63;5012603;28;47147;-76
2022/01/27 07:29:20;;;;;;;;;51.25;43.50;;;;;6.39;63.29;102737.13;5010221;28;45389;-75
2022/01/27 07:31:46;;;;;;;;;44.00;38.50;;;;;6.17;62.58;102709.94;5019104;28;45258;-74
2022/01/27 07:34:11;;;;;;;;;55.50;42.25;;;;;6.46;62.71;102744.81;5001724;28;45243;-76
2022/01/27 07:36:37;;;;;;;;;54.00;42.25;;;;;6.12;62.98;102687.31;5018995;28;45523;-74
2022/01/27 07:39:03;;;;;;;;;48.50;37.00;;;;;6.52;62.97;102752.44;5019005;28;45231;-75
2022/01/27 07:41:28;;;;;;;;;50.50;40.25;;;;;6.28;62.49;102718.28;5019715;28;45309;-75
2022/01/27 07:43:54;;;;;;;;;54.00;40.75;;;;;6.42;62.85;102748.50;5020460;28;45255;-76
2022/01/27 07:46:19;;;;;;;;;47.25;39.00;;;;;6.11;63.25;102712.88;4997294;28;48413;-76
2022/01/27 07:48:47;;;;;;;;;55.25;46.25;;;;;6.31;63.30;102746.34;5021664;28;45462;-76
2022/01/27 07:51:13;;;;;;;;;49.25;38.75;;;;;6.25;63.16;102750.13;5019866;28;45268;-77
2022/01/27 07:53:43;;;;;;;;;53.50;39.75;;;;;6.21;63.33;102726.56;5034271;28;45610;-76
2022/01/27 07:56:08;;;;;;;;;54.25;41.75;;;;;5.93;62.99;102682.84;5019765;28;45566;-76
2022/01/27 07:58:38;;;;;;;;;54.00;44.75;;;;;6.24;63.02;102734.34;5017326;28;45405;-76
2022/01/27 08:01:04;;;;;;;;;50.50;41.25;;;;;6.30;62.84;102750.75;5000821;28;45321;-74
2022/01/27 08:03:30;;;;;;;;;46.00;38.50;;;;;6.26;63.52;102758.91;4998573;28;45428;-76
2022/01/27 08:05:55;;;;;;;;;52.25;39.25;;;;;6.18;63.66;102745.16;5017339;28;45398;-76
2022/01/27 08:08:21;;;;;;;;;50.75;41.50;;;;;6.28;63.38;102760.53;5018478;28;45413;-74
2022/01/27 08:10:48;;;;;;;;;54.50;41.00;;;;;5.99;63.72;102719.53;5018278;28;46563;-76
2022/01/27 08:13:14;;;;;;;;;59.50;42.25;;;;;6.00;63.52;102721.25;4995878;28;45470;-76
2022/01/27 08:15:40;;;;;;;;;49.00;36.50;;;;;6.07;63.25;102728.00;5016151;28;46932;-75
2022/01/27 08:18:05;;;;;;;;;56.00;41.50;;;;;6.33;63.33;102770.91;5006189;28;45484;-76
2022/01/27 08:20:31;;;;;;;;;55.25;42.50;;;;;6.18;63.51;102735.44;5012462;28;45401;-77
2022/01/27 08:22:58;;;;;;;;;52.50;41.25;;;;;6.18;63.11;102731.94;5015130;28;46000;-74
2022/01/27 08:25:24;;;;;;;;;46.00;39.00;;;;;6.40;62.99;102770.56;5008273;28;47189;-74
2022/01/27 08:27:56;;;;;;;;;58.00;47.00;;;;;6.42;62.57;102769.66;5018967;28;46321;-75
2022/01/27 08:30:34;;;;;;;;;;;;;;;;;;;;;
2022/01/27 08:33:05;;;;;;;;;51.75;40.50;;;;;6.25;63.46;102742.19;5019524;28;64378;-75
2022/01/27 08:35:31;;;;;;;;;50.50;37.75;;;;;6.32;63.22;102748.91;5001573;28;46695;-77
2022/01/27 08:37:57;;;;;;;;;58.75;45.50;;;;;5.97;63.28;102702.03;5017551;28;45471;-79
2022/01/27 08:40:25;;;;;;;;;44.50;36.50;;;;;6.07;63.06;102706.88;5018445;28;45575;-75
2022/01/27 08:42:51;;;;;;;;;51.75;41.00;;;;;6.12;62.76;102703.16;5018371;28;45468;-75
2022/01/27 08:45:21;;;;;;;;;59.00;44.75;;;;;6.59;62.70;102781.16;5018934;28;45720;-75
2022/01/27 08:47:47;;;;;;;;;56.75;43.50;;;;;6.40;63.18;102743.28;4997626;28;45417;-76
2022/01/27 08:50:14;;;;;;;;;50.50;40.25;;;;;6.58;63.04;102762.72;5005837;28;45334;-75
2022/01/27 08:52:42;;;;;;;;;47.25;40.00;;;;;6.37;63.02;102738.13;5000889;28;45598;-74
2022/01/27 08:55:13;;;;;;;;;51.25;37.25;;;;;6.36;62.83;102734.63;5033579;28;47618;-76
2022/01/27 08:57:39;;;;;;;;;53.50;42.00;;;;;6.25;63.04;102715.78;5017191;28;45464;-76
2022/01/27 09:00:08;;;;;;;;;52.50;39.25;;;;;6.46;62.99;102739.53;5010297;28;45323;-73
2022/01/27 09:02:33;;;;;;;;;51.50;40.25;;;;;6.61;62.79;102757.34;5000904;28;45520;-75
2022/01/27 09:04:59;;;;;;;;;52.50;43.00;;;;;6.54;62.66;102740.03;5016586;28;45583;-73
2022/01/27 09:07:24;;;;;;;;;52.75;41.75;;;;;6.67;62.95;102755.25;5017850;28;45246;-75
2022/01/27 09:09:53;;;;;;;;;53.25;42.75;;;;;6.69;62.76;102744.63;5016608;28;45525;-75
2022/01/27 09:12:18;;;;;;;;;50.25;41.75;;;;;6.72;62.51;102749.75;5012947;28;45409;-74
2022/01/27 09:14:44;;;;;;;;;53.75;42.25;;;;;6.65;62.41;102729.84;5018042;28;45966;-77
2022/01/27 09:17:14;;;;;;;;;53.75;44.00;;;;;6.59;62.91;102719.53;4999873;28;45620;-80
2022/01/27 09:19:42;;;;;;;;;52.00;43.25;;;;;6.68;62.71;102721.75;5011482;28;45493;-81
2022/01/27 09:22:13;;;;;;;;;50.50;39.50;;;;;6.71;62.63;102718.97;5015906;28;45585;-78
2022/01/27 09:24:50;;;;;;;;;52.00;41.75;;;;;6.74;62.03;102716.19;5002755;28;46237;-78
2022/01/27 09:27:17;;;;;;;;;49.00;39.00;;;;;6.80;62.54;102723.81;5018000;28;45488;-81
2022/01/27 09:29:43;;;;;;;;;57.75;43.00;;;;;6.77;62.56;102707.25;5018817;28;45410;-83
2022/01/27 09:32:09;;;;;;;;;57.25;45.75;;;;;6.96;62.42;102740.69;4992815;28;45280;-77
2022/01/27 09:34:36;;;;;;;;;59.75;48.00;;;;;6.93;62.22;102722.31;5001361;28;47436;-78
2022/01/27 09:37:02;;;;;;;;;58.00;44.50;;;;;6.94;62.38;102716.09;5000724;28;45257;-80
2022/01/27 09:39:33;;;;;;;;;56.00;41.75;;;;;7.13;62.20;102744.34;5002217;28;45297;-81
2022/01/27 09:42:00;;;;;;;;;55.75;45.00;;;;;7.24;61.96;102736.75;5000523;28;45501;-73
2022/01/27 09:44:29;;;;;;;;;51.50;42.75;;;;;6.53;61.42;102617.63;4999175;28;47417;-78
2022/01/27 09:46:58;;;;;;;;;44.75;36.50;;;;;7.18;61.53;102711.44;4999989;28;45364;-75
2022/01/27 09:50:06;;;;;;;;;56.50;46.00;;;;;7.46;61.25;102744.50;4999178;28;45299;-73
2022/01/27 09:52:17;;;;;;;;;48.00;39.00;;;;;7.39;60.91;102730.69;5013453;28;45544;-75
2022/01/27 09:54:46;;;;;;;;;55.25;43.25;;;;;6.92;61.33;102649.22;5017270;28;46746;-81
2022/01/27 09:57:17;;;;;;;;;55.00;44.50;;;;;7.58;60.51;102741.25;4998481;28;45415;-75
2022/01/27 09:59:46;;;;;;;;;57.50;43.50;;;;;7.47;60.46;102704.72;5001328;28;45562;-76
2022/01/27 10:02:16;;;;;;;;;51.00;40.00;;;;;7.55;60.61;102715.78;5017039;28;45258;-75
2022/01/27 10:04:47;;;;;;;;;52.25;40.50;;;;;7.58;60.00;102718.28;4999833;28;46829;-75
2022/01/27 10:07:15;;;;;;;;;39.50;35.00;;;;;7.42;60.10;102684.72;4999234;28;45245;-76
2022/01/27 10:10:07;;;;;;;;;52.75;41.50;;;;;7.62;60.40;102725.16;5016581;28;45555;-78
2022/01/27 10:12:48;;;;;;;;;50.50;40.00;;;;;7.72;60.78;102729.97;5018962;28;45316;-82
2022/01/27 10:15:24;;;;;;;;;53.00;44.00;;;;;7.80;60.61;102744.53;5000245;28;46910;-78
2022/01/27 10:18:02;;;;;;;;;53.00;41.75;;;;;7.81;59.97;102735.69;5034013;28;45278;-81
2022/01/27 10:20:28;;;;;;;;;51.25;41.75;;;;;7.63;60.02;102700.41;4998524;28;45492;-81
2022/01/27 10:23:19;;;;;;;;;48.25;40.75;;;;;7.80;60.51;102727.78;4998283;28;45445;-78
2022/01/27 10:25:55;;;;;;;;;48.50;39.75;;;;;7.87;60.02;102739.81;5018394;28;46925;-77
2022/01/27 10:31:08;;;;;;;;;47.00;39.25;;;;;7.32;60.28;102626.09;5013017;28;45478;-79
2022/01/27 10:33:46;;;;;;;;;67.00;51.25;;;;;8.13;59.19;102744.59;5008828;28;45523;-73
2022/01/27 10:36:22;;;;;;;;;54.50;42.25;;;;;8.17;59.78;102726.75;4997885;28;45374;-73
2022/01/27 10:38:56;;;;;;;;;58.00;43.25;;;;;8.01;59.53;102705.53;5014287;28;45422;-72
2022/01/27 10:41:26;;;;;;;;;50.75;39.25;;;;;7.74;59.40;102646.03;4998383;28;45691;-73
2022/01/27 10:44:18;;;;;;;;;58.25;43.00;;;;;7.98;59.03;102679.16;4995496;28;45315;-77
2022/01/27 10:47:15;;;;;;;;;51.00;40.00;;;;;8.22;59.87;102720.31;4995631;28;45793;-74
2022/01/27 10:50:03;;;;;;;;;54.25;44.50;;;;;8.27;59.43;102716.56;5002486;28;45445;-73
2022/01/27 10:55:06;;;;;;;;;51.25;42.25;;;;;8.25;59.55;102713.97;5016271;28;45476;-75
2022/01/27 10:57:32;;;;;;;;;50.75;39.75;;;;;7.73;60.02;102620.50;4997989;28;46101;-74
2022/01/27 11:00:33;;;;;;;;;51.00;40.75;;;;;8.31;59.70;102718.09;5016285;28;45305;-73
2022/01/27 11:03:19;;;;;;;;;52.25;42.00;;;;;8.35;59.67;102719.66;5015405;28;45519;-76
2022/01/27 11:05:45;;;;;;;;;60.50;44.50;;;;;8.33;59.53;102718.88;5019874;28;45366;-73
2022/01/27 11:08:11;;;;;;;;;51.00;40.25;;;;;8.29;59.32;102706.72;5019534;28;45428;-74
2022/01/27 11:10:37;;;;;;;;;52.00;42.50;;;;;8.41;59.82;102724.63;5019772;28;45446;-74
2022/01/27 11:13:02;;;;;;;;;54.00;39.00;;;;;8.31;59.16;102699.53;5020808;28;45451;-74
2022/01/27 11:15:28;;;;;;;;;54.25;42.00;;;;;8.00;59.12;102645.50;5013611;28;45441;-73
2022/01/27 11:17:55;;;;;;;;;52.33;39.00;;;;;8.41;59.13;102708.72;5016838;28;46102;-74
2022/01/27 11:20:48;;;;;;;;;51.25;41.50;;;;;8.29;59.16;102681.06;5018771;28;45464;-73
2022/01/27 11:26:07;;;;;;;;;48.25;40.50;;;;;8.65;58.84;102723.34;5015397;28;45491;-72
2022/01/27 11:28:33;;;;;;;;;38.67;33.00;;;;;8.66;59.44;102719.75;5012113;28;46719;-72
2022/01/27 11:31:26;;;;;;;;;51.50;40.00;;;;;8.69;59.32;102721.38;5034277;28;45604;-76
2022/01/27 11:34:07;;;;;;;;;47.75;39.00;;;;;8.71;58.98;102716.84;5034066;28;45514;-75
2022/01/27 11:36:37;;;;;;;;;50.75;38.75;;;;;8.48;59.25;102673.03;5032410;28;45467;-74
2022/01/27 11:39:09;;;;;;;;;53.75;39.25;;;;;8.62;59.17;102690.84;5018589;28;45564;-75
2022/01/27 11:41:38;;;;;;;;;48.25;39.25;;;;;8.73;59.19;102702.56;5028408;28;45304;-73
2022/01/27 11:44:25;;;;;;;;;47.25;39.00;;;;;8.70;58.98;102692.13;5000455;28;46848;-74
2022/01/27 11:47:10;;;;;;;;;53.50;42.00;;;;;8.84;59.06;102696.69;5000829;28;45615;-73
2022/01/27 11:50:17;;;;;;;;;44.00;36.33;;;;;8.90;58.80;102682.22;5016654;28;45394;-74
2022/01/27 11:52:56;;;;;;;;;53.50;41.75;;;;;8.86;58.76;102672.72;5018892;28;45303;-73
2022/01/27 11:55:25;;;;;;;;;47.25;39.00;;;;;8.88;58.63;102676.13;5018830;28;45401;-73
2022/01/27 11:57:52;;;;;;;;;47.50;39.25;;;;;8.87;58.84;102666.47;5016300;28;45540;-73
2022/01/27 12:00:20;;;;;;;;;55.25;42.00;;;;;8.58;59.03;102602.63;5018262;28;46057;-72
2022/01/27 12:03:00;;;;;;;;;52.25;42.25;;;;;8.97;58.99;102675.59;5018471;28;45389;-73
2022/01/27 12:05:29;;;;;;;;;50.25;38.00;;;;;8.99;58.36;102679.88;5018674;28;45404;-73
2022/01/27 12:08:12;;;;;;;;;52.00;41.25;;;;;8.43;58.80;102566.41;5000342;28;45660;-72
2022/01/27 12:10:55;;;;;;;;;53.25;42.75;;;;;8.52;58.05;102572.03;5017569;28;45654;-74
2022/01/27 12:13:33;;;;;;;;;50.25;42.00;;;;;9.15;58.49;102675.41;5000414;28;45516;-73
2022/01/27 12:16:24;;;;;;;;;54.50;42.00;;;;;9.22;58.28;102669.78;5032902;28;45575;-72
2022/01/27 12:19:01;;;;;;;;;55.75;43.75;;;;;9.17;57.98;102655.91;5000578;28;45559;-73
2022/01/27 12:21:44;;;;;;;;;47.75;38.25;;;;;9.24;58.62;102668.75;5019171;28;45269;-73
2022/01/27 12:26:49;;;;;;;;;46.67;38.00;;;;;9.20;58.06;102655.72;5018235;28;46600;-74